Airfield :
LOGIN :

Register | Disclaimer

   EN    FR    IT 

 










Legend :    VFR   Marginal VFR   IFR   Intensive IFR   Very Intensive IFR
Visi :
Ceiling :
>= 8 km
>= 3000ft
5 to 8 km
1000 to 3000 ft
1500m to 5 km
500 to 1000 ft
800 to 1500m
200 to 500 ft
< 800m
< 200 ft
Symbols :   Thunderstorms  Fog  Heavy snow  Heavy precipitations  Wind > 20 kt
SIGMETs :     Misc.  Thunderstorms  Icing  Turbulence  Mountain Waves  Volcanic Ashes







- Airport Elevation : 412 ft
- IATA code : ADB


LTBJ - Adnan Menderes

CURRENT METAR :
  • 180920Z 01012KT 330V040 9999 SCT030 BKN110 29/17 Q1010 TEMPO FM1020 5000 TSRA

EXPIRED METARs :
  • 180850Z 01011KT 330V060 9999 SCT030 BKN120 30/17 Q1010 NOSIG RMK RWY16 01010KT 330V050
  • 180820Z 34010KT 310V010 9999 FEW030 BKN120 29/17 Q1010 NOSIG RMK RWY16 35011KT 320V020
  • 180750Z 01012KT 340V040 9999 FEW030 BKN120 28/16 Q1010 NOSIG RMK RWY16 01012KT 330V040
  • 180720Z 36011KT 340V050 9999 FEW030 BKN120 28/16 Q1010 NOSIG RMK RWY16 35012KT 320V020
  • 180650Z 01009KT 330V050 9999 SCT030 BKN100 27/17 Q1010 NOSIG RMK RWY16 35011KT 320V040

TAF TAF LTBJ
Valid from the 18 at 06:00 until the 19 at 06:00 UTC


180440Z 1806/1906 VRB02KT 9999 SCT030 BKN100
BECMG 1806/1809 36013KT
TEMPO 1810/1814 5000 TSRA SCT015CB BKN025
TEMPO 1815/1819 -TSRA FEW015CB BKN025
No reported NOTAMs for that airfield.



MET'MAP, your aeronautical weather chart ! - Copyright ORBIFLY December 2007 - Disclaimer

ORBIFLY MET'MAP TEAM :

Programming & Development : Alexandra Zaïnal
Concept & Development : Baudouin d'Aumeries
Co-Development & Prog : Marc-Olivier Méhu
Technical & hardware support : Manuel Goepfert

Contact : metmap@orbifly.com




SOURCES & CREDITS :

   NOAA